createdAt,value
2019-03-16T00:00:12.172Z,99.90
2019-03-16T00:02:41.839Z,99.90
2019-03-16T00:05:11.646Z,99.90
2019-03-16T00:07:41.314Z,99.90
2019-03-16T00:10:11.008Z,99.90
2019-03-16T00:12:40.655Z,99.90
2019-03-16T00:15:10.484Z,99.90
2019-03-16T00:17:40.119Z,99.90
2019-03-16T00:20:09.864Z,99.90
2019-03-16T00:22:39.471Z,99.90
2019-03-16T00:25:09.303Z,99.90
2019-03-16T00:27:39.026Z,99.90
2019-03-16T00:30:08.782Z,99.90
2019-03-16T00:32:38.432Z,99.90
2019-03-16T00:35:08.134Z,99.90
2019-03-16T00:37:38.746Z,99.90
2019-03-16T00:40:08.522Z,99.90
2019-03-16T00:42:38.146Z,99.90
2019-03-16T00:45:08.194Z,99.90
2019-03-16T00:47:37.819Z,99.90
2019-03-16T00:50:08.185Z,99.90
2019-03-16T00:52:37.826Z,99.90
2019-03-16T00:55:07.894Z,99.90
2019-03-16T00:57:37.511Z,99.90
2019-03-16T01:00:08.370Z,99.90
2019-03-16T01:02:38.090Z,99.90
2019-03-16T01:05:10.430Z,99.90
2019-03-16T01:07:40.186Z,99.90
2019-03-16T01:10:11.047Z,99.90
2019-03-16T01:12:40.666Z,99.90
2019-03-16T01:15:10.657Z,99.90
2019-03-16T01:17:40.286Z,99.90
2019-03-16T01:20:09.965Z,99.90
2019-03-16T01:22:39.614Z,99.90
2019-03-16T01:25:09.264Z,99.90
2019-03-16T01:27:38.859Z,99.90
2019-03-16T01:30:11.910Z,99.90
2019-03-16T01:32:43.531Z,99.90
2019-03-16T01:35:13.159Z,99.90
2019-03-16T01:37:43.374Z,99.90
2019-03-16T01:40:13.077Z,99.90
2019-03-16T01:42:42.790Z,99.90
2019-03-16T01:45:12.565Z,99.90
2019-03-16T01:47:42.163Z,99.90
2019-03-16T01:50:12.069Z,99.90
2019-03-16T01:52:41.708Z,99.90
2019-03-16T01:55:11.453Z,99.90
2019-03-16T01:57:41.101Z,99.90
2019-03-16T02:00:11.160Z,99.90
2019-03-16T02:02:53.820Z,99.90
2019-03-16T02:05:12.283Z,99.90
2019-03-16T02:07:41.910Z,99.90
2019-03-16T02:10:11.619Z,99.90
2019-03-16T02:12:41.348Z,99.90
2019-03-16T02:15:11.103Z,99.90
2019-03-16T02:17:40.761Z,99.90
2019-03-16T02:20:10.464Z,99.90
2019-03-16T02:22:40.090Z,99.90
2019-03-16T02:25:09.919Z,99.90
2019-03-16T02:27:39.660Z,99.90
2019-03-16T02:30:09.805Z,99.90
2019-03-16T02:32:39.443Z,99.90
2019-03-16T02:35:09.396Z,99.90
2019-03-16T02:37:39.029Z,99.90
2019-03-16T02:40:08.930Z,99.90
2019-03-16T02:42:38.556Z,99.90
2019-03-16T02:45:08.335Z,99.90
2019-03-16T02:47:37.972Z,99.90
2019-03-16T02:50:07.760Z,99.90
2019-03-16T02:52:37.415Z,99.90
2019-03-16T02:55:07.270Z,99.90
2019-03-16T02:57:36.921Z,99.90
2019-03-16T03:00:07.947Z,99.90
2019-03-16T03:02:37.599Z,99.90
2019-03-16T03:05:08.887Z,99.90
2019-03-16T03:07:38.506Z,99.90
2019-03-16T03:10:08.483Z,99.90
2019-03-16T03:12:38.089Z,99.90
2019-03-16T03:15:07.820Z,99.90
2019-03-16T03:17:37.499Z,99.90
2019-03-16T03:20:07.244Z,99.90
2019-03-16T03:22:37.039Z,99.90
2019-03-16T03:25:06.904Z,99.90
2019-03-16T03:27:36.612Z,99.90
2019-03-16T03:30:07.623Z,99.90
2019-03-16T03:32:37.359Z,99.90
2019-03-16T03:35:07.277Z,99.90
2019-03-16T03:37:36.956Z,99.90
2019-03-16T03:40:06.709Z,99.90
2019-03-16T03:42:36.388Z,99.90
2019-03-16T03:45:06.401Z,99.90
2019-03-16T03:47:36.092Z,99.90
2019-03-16T03:50:06.885Z,99.90
2019-03-16T03:52:36.632Z,99.90
2019-03-16T03:55:07.124Z,99.90
2019-03-16T03:57:36.783Z,99.90
2019-03-16T04:00:07.434Z,99.90
2019-03-16T04:02:37.040Z,99.90
2019-03-16T04:05:07.067Z,99.90
2019-03-16T04:07:36.953Z,99.90
2019-03-16T04:10:07.492Z,99.90
2019-03-16T04:12:37.142Z,99.90
2019-03-16T04:15:06.990Z,99.90
2019-03-16T04:17:36.634Z,99.90
2019-03-16T04:20:07.087Z,99.90
2019-03-16T04:22:36.846Z,99.90
2019-03-16T04:25:06.484Z,99.90
2019-03-16T04:27:36.136Z,99.90
2019-03-16T04:30:06.048Z,99.90
2019-03-16T04:32:35.676Z,99.90
2019-03-16T04:35:05.403Z,99.90
2019-03-16T04:37:35.033Z,99.90
2019-03-16T04:40:05.092Z,99.90
2019-03-16T04:42:34.811Z,99.90
2019-03-16T04:45:04.572Z,99.90
2019-03-16T04:47:34.178Z,99.90
2019-03-16T04:50:03.896Z,99.90
2019-03-16T04:52:33.564Z,99.90
2019-03-16T04:55:03.158Z,99.90
2019-03-16T04:57:32.781Z,99.90
2019-03-16T05:00:02.428Z,99.90
2019-03-16T05:02:32.060Z,99.90
2019-03-16T05:05:01.663Z,99.90
2019-03-16T05:07:32.255Z,99.90
2019-03-16T05:10:01.886Z,99.90
2019-03-16T05:12:31.512Z,99.90
2019-03-16T05:15:01.143Z,99.90
2019-03-16T05:17:30.790Z,99.90
2019-03-16T05:20:00.462Z,99.90
2019-03-16T05:22:30.098Z,99.90
2019-03-16T05:24:59.734Z,99.90
2019-03-16T05:27:29.470Z,99.90
2019-03-16T05:29:59.134Z,99.90
2019-03-16T05:32:47.740Z,99.90
2019-03-16T05:35:17.384Z,99.90
2019-03-16T05:37:47.024Z,99.90
2019-03-16T05:40:16.631Z,99.90
2019-03-16T05:42:46.270Z,99.90
2019-03-16T05:45:15.941Z,99.90
2019-03-16T05:47:45.533Z,99.90
2019-03-16T05:50:15.211Z,99.90
2019-03-16T05:52:44.799Z,99.90
2019-03-16T05:55:14.433Z,99.90
2019-03-16T05:57:44.071Z,99.90
2019-03-16T06:00:13.799Z,99.90
2019-03-16T06:02:43.613Z,99.90
2019-03-16T06:05:13.440Z,99.90
2019-03-16T06:07:43.155Z,99.90
2019-03-16T06:10:13.371Z,99.90
2019-03-16T06:12:46.319Z,99.90
2019-03-16T06:15:14.269Z,99.90
2019-03-16T06:17:43.862Z,99.90
2019-03-16T06:20:13.641Z,99.90
2019-03-16T06:22:43.231Z,99.90
2019-03-16T06:25:12.979Z,99.90
2019-03-16T06:27:42.635Z,99.90
2019-03-16T06:30:12.510Z,99.90
2019-03-16T06:32:42.116Z,99.90
2019-03-16T06:35:23.941Z,99.90
2019-03-16T06:37:43.220Z,99.90
2019-03-16T06:40:13.228Z,99.90
2019-03-16T06:42:42.920Z,99.90
2019-03-16T06:45:12.970Z,99.90
2019-03-16T06:47:42.592Z,99.90
2019-03-16T06:50:12.717Z,99.90
2019-03-16T06:52:42.335Z,99.90
2019-03-16T06:55:12.934Z,99.90
2019-03-16T06:57:42.581Z,99.90
2019-03-16T07:00:12.438Z,99.90
2019-03-16T07:02:42.037Z,99.90
2019-03-16T07:05:11.762Z,99.90
2019-03-16T07:07:41.383Z,99.90
2019-03-16T07:10:11.104Z,99.90
2019-03-16T07:12:41.080Z,99.90
2019-03-16T07:15:10.692Z,99.90
2019-03-16T07:17:40.281Z,99.90
2019-03-16T07:20:09.971Z,99.90
2019-03-16T07:22:39.620Z,99.90
2019-03-16T07:25:10.573Z,99.90
2019-03-16T07:27:40.397Z,99.90
2019-03-16T07:30:10.113Z,99.90
2019-03-16T07:32:39.783Z,99.90
2019-03-16T07:35:09.559Z,99.90
2019-03-16T07:37:39.216Z,99.90
2019-03-16T07:40:09.122Z,99.90
2019-03-16T07:42:38.818Z,99.90
2019-03-16T07:45:09.279Z,99.90
2019-03-16T07:47:38.966Z,99.90
2019-03-16T07:50:08.626Z,99.90
2019-03-16T07:52:38.572Z,99.90
2019-03-16T07:55:08.473Z,99.90
2019-03-16T07:57:40.357Z,99.90
2019-03-16T08:00:09.539Z,99.90
2019-03-16T08:02:39.149Z,99.90
2019-03-16T08:05:18.056Z,99.90
2019-03-16T08:07:40.242Z,99.90
2019-03-16T08:10:09.971Z,99.90
2019-03-16T08:12:39.635Z,99.90
2019-03-16T08:15:09.395Z,99.90
2019-03-16T08:17:39.027Z,99.90
2019-03-16T08:20:08.838Z,99.90
2019-03-16T08:22:38.457Z,99.90
2019-03-16T08:25:08.298Z,99.90
2019-03-16T08:27:37.946Z,99.90
2019-03-16T08:30:09.180Z,99.90
2019-03-16T08:32:38.792Z,99.90
2019-03-16T08:35:08.677Z,99.90
2019-03-16T08:37:38.344Z,99.90
2019-03-16T08:40:08.199Z,99.90
2019-03-16T08:42:37.874Z,99.90
2019-03-16T08:45:07.707Z,99.90
2019-03-16T08:47:37.357Z,99.90
2019-03-16T08:50:07.095Z,99.90
2019-03-16T08:52:36.723Z,99.90
2019-03-16T08:55:06.578Z,99.90
2019-03-16T08:57:36.228Z,99.90
2019-03-16T09:00:06.307Z,99.90
2019-03-16T09:02:35.946Z,99.90
2019-03-16T09:05:06.176Z,99.90
2019-03-16T09:07:35.774Z,99.90
2019-03-16T09:10:05.604Z,99.90
2019-03-16T09:12:35.269Z,99.90
2019-03-16T09:15:05.250Z,99.90
2019-03-16T09:17:34.843Z,99.90
2019-03-16T09:20:04.880Z,99.90
2019-03-16T09:22:34.491Z,99.90
2019-03-16T09:25:04.257Z,99.90
2019-03-16T09:27:33.899Z,99.90
2019-03-16T09:30:03.647Z,99.90
2019-03-16T09:32:33.265Z,99.90
2019-03-16T09:35:03.851Z,99.90
2019-03-16T09:37:33.502Z,99.90
2019-03-16T09:40:03.107Z,99.90
2019-03-16T09:42:33.747Z,99.90
2019-03-16T09:45:03.389Z,99.90
2019-03-16T09:47:33.094Z,99.90
2019-03-16T09:50:02.839Z,99.80
2019-03-16T09:52:32.466Z,99.30
2019-03-16T09:55:02.206Z,98.50
2019-03-16T09:57:31.842Z,90.40
2019-03-16T10:00:01.502Z,90.90
2019-03-16T10:02:31.238Z,90.70
2019-03-16T10:05:00.918Z,86.80
2019-03-16T10:07:30.682Z,85.90
2019-03-16T10:10:00.380Z,84.20
2019-03-16T10:12:30.271Z,86.40
2019-03-16T10:15:01.087Z,84.50
2019-03-16T10:17:32.369Z,83.20
2019-03-16T10:20:02.034Z,84.40
2019-03-16T10:22:31.671Z,84.40
2019-03-16T10:25:01.275Z,77.20
2019-03-16T10:27:30.920Z,78.80
2019-03-16T10:30:00.605Z,78.20
2019-03-16T10:32:30.235Z,79.00
2019-03-16T10:34:59.914Z,74.60
2019-03-16T10:37:29.516Z,72.60
2019-03-16T10:39:59.226Z,72.10
2019-03-16T10:42:28.924Z,69.00
2019-03-16T10:44:58.533Z,69.40
2019-03-16T10:47:28.152Z,67.40
2019-03-16T10:49:59.218Z,66.30
2019-03-16T10:52:28.976Z,62.70
2019-03-16T10:54:58.700Z,62.90
2019-03-16T10:57:28.334Z,61.20
2019-03-16T10:59:58.046Z,61.70
2019-03-16T11:02:27.753Z,60.20
2019-03-16T11:04:57.359Z,58.30
2019-03-16T11:07:27.026Z,58.80
2019-03-16T11:09:56.708Z,58.80
2019-03-16T11:12:26.430Z,57.80
2019-03-16T11:14:56.194Z,57.30
2019-03-16T11:17:25.830Z,56.30
2019-03-16T11:19:55.470Z,54.70
2019-03-16T11:22:25.209Z,54.80
2019-03-16T11:24:54.837Z,54.40
2019-03-16T11:27:24.476Z,53.50
2019-03-16T11:29:54.190Z,51.70
2019-03-16T11:32:23.860Z,51.00
2019-03-16T11:34:53.518Z,50.80
2019-03-16T11:37:23.175Z,50.10
2019-03-16T11:39:52.922Z,48.90
2019-03-16T11:42:22.745Z,47.20
2019-03-16T11:44:52.371Z,47.30
2019-03-16T11:47:21.975Z,47.30
2019-03-16T11:49:51.646Z,46.30
2019-03-16T11:52:21.346Z,45.10
2019-03-16T11:54:50.957Z,45.20
2019-03-16T11:57:20.980Z,44.70
2019-03-16T11:59:50.637Z,43.50
2019-03-16T12:02:20.268Z,43.60
2019-03-16T12:04:49.953Z,42.00
2019-03-16T12:07:19.647Z,42.00
2019-03-16T12:09:49.281Z,41.30
2019-03-16T12:12:19.048Z,40.50
2019-03-16T12:14:48.672Z,40.00
2019-03-16T12:17:18.267Z,39.40
2019-03-16T12:19:47.938Z,39.80
2019-03-16T12:22:17.552Z,38.20
2019-03-16T12:24:47.201Z,38.40
2019-03-16T12:27:16.912Z,37.20
2019-03-16T12:29:46.542Z,37.80
2019-03-16T12:32:16.172Z,32.90
2019-03-16T12:34:45.835Z,36.70
2019-03-16T12:37:15.467Z,35.80
2019-03-16T12:39:45.086Z,36.30
2019-03-16T12:42:14.814Z,35.60
2019-03-16T12:44:44.444Z,36.10
2019-03-16T12:47:17.404Z,35.60
2019-03-16T12:49:48.295Z,35.20
2019-03-16T12:52:19.029Z,32.30
2019-03-16T12:54:51.003Z,32.40
2019-03-16T12:57:20.726Z,31.90
2019-03-16T12:59:50.352Z,33.10
2019-03-16T13:02:19.998Z,34.90
2019-03-16T13:04:49.679Z,33.20
2019-03-16T13:07:19.315Z,31.10
2019-03-16T13:09:48.931Z,31.80
2019-03-16T13:12:18.557Z,31.20
2019-03-16T13:14:48.231Z,32.60
2019-03-16T13:17:17.880Z,32.40
2019-03-16T13:19:47.560Z,29.40
2019-03-16T13:22:19.188Z,29.00
2019-03-16T13:24:48.802Z,31.30
2019-03-16T13:27:20.247Z,27.90
2019-03-16T13:29:58.932Z,29.20
2019-03-16T13:32:26.651Z,29.50
2019-03-16T13:34:56.282Z,28.20
2019-03-16T13:37:25.908Z,24.50
2019-03-16T13:39:55.580Z,25.90
2019-03-16T13:42:25.179Z,25.60
2019-03-16T13:44:56.101Z,26.50
2019-03-16T13:47:25.802Z,27.10
2019-03-16T13:49:55.428Z,24.60
2019-03-16T13:52:26.043Z,26.30
2019-03-16T13:54:56.695Z,25.70
2019-03-16T13:57:26.521Z,25.10
2019-03-16T13:59:56.171Z,25.30
2019-03-16T14:02:25.867Z,24.00
2019-03-16T14:04:55.559Z,25.40
2019-03-16T14:07:25.451Z,25.10
2019-03-16T14:09:55.092Z,23.80
2019-03-16T14:12:24.746Z,23.50
2019-03-16T14:14:54.696Z,23.50
2019-03-16T14:17:24.514Z,22.40
2019-03-16T14:19:54.190Z,23.10
2019-03-16T14:22:23.861Z,21.10
2019-03-16T14:24:53.497Z,22.60
2019-03-16T14:27:23.112Z,21.90
2019-03-16T14:29:52.711Z,22.40
2019-03-16T14:32:22.994Z,20.70
2019-03-16T14:34:52.708Z,20.10
2019-03-16T14:37:22.777Z,20.40
2019-03-16T14:39:52.473Z,21.20
2019-03-16T14:42:22.081Z,22.20
2019-03-16T14:44:51.722Z,22.90
2019-03-16T14:47:22.046Z,22.90
2019-03-16T14:49:51.704Z,22.80
2019-03-16T14:52:21.788Z,23.40
2019-03-16T14:54:51.468Z,23.00
2019-03-16T14:57:23.298Z,22.30
2019-03-16T14:59:53.017Z,21.00
2019-03-16T15:02:23.808Z,22.40
2019-03-16T15:04:53.409Z,23.10
2019-03-16T15:07:26.864Z,24.30
2019-03-16T15:09:59.062Z,24.10
2019-03-16T15:12:28.768Z,23.80
2019-03-16T15:14:58.430Z,24.10
2019-03-16T15:17:30.307Z,23.60
2019-03-16T15:19:59.706Z,24.20
2019-03-16T15:22:29.396Z,25.00
2019-03-16T15:24:59.214Z,24.60
2019-03-16T15:27:29.074Z,24.80
2019-03-16T15:29:58.769Z,25.80
2019-03-16T15:32:28.417Z,26.80
2019-03-16T15:34:58.128Z,27.20
2019-03-16T15:37:27.864Z,27.60
2019-03-16T15:39:57.590Z,28.10
2019-03-16T15:42:30.268Z,28.30
2019-03-16T15:45:02.172Z,28.50
2019-03-16T15:47:31.926Z,28.20
2019-03-16T15:50:01.967Z,29.20
2019-03-16T15:52:32.009Z,29.30
2019-03-16T15:55:01.654Z,29.50
2019-03-16T15:57:31.249Z,29.20
2019-03-16T16:00:01.320Z,29.10
2019-03-16T16:02:31.220Z,30.00
2019-03-16T16:05:00.879Z,29.90
2019-03-16T16:07:30.722Z,30.30
2019-03-16T16:10:00.448Z,31.20
2019-03-16T16:12:30.177Z,31.20
2019-03-16T16:15:02.038Z,32.10
2019-03-16T16:17:31.771Z,31.80
2019-03-16T16:20:07.908Z,31.60
2019-03-16T16:22:37.547Z,31.40
2019-03-16T16:25:07.699Z,32.20
2019-03-16T16:27:40.466Z,33.30
2019-03-16T16:30:11.280Z,33.10
2019-03-16T16:32:40.930Z,33.40
2019-03-16T16:35:15.249Z,33.20
2019-03-16T16:37:46.193Z,33.60
2019-03-16T16:40:17.467Z,34.20
2019-03-16T16:42:49.287Z,34.20
2019-03-16T16:45:18.928Z,34.50
2019-03-16T16:47:50.550Z,34.20
2019-03-16T16:50:21.553Z,35.60
2019-03-16T16:52:52.674Z,35.40
2019-03-16T16:55:22.307Z,36.10
2019-03-16T16:57:51.944Z,36.40
2019-03-16T17:00:21.559Z,36.20
2019-03-16T17:02:51.211Z,36.20
2019-03-16T17:05:22.983Z,36.70
2019-03-16T17:07:52.615Z,36.50
2019-03-16T17:10:22.284Z,36.20
2019-03-16T17:12:51.902Z,36.30
2019-03-16T17:15:21.612Z,35.90
2019-03-16T17:17:51.376Z,37.40
2019-03-16T17:20:23.297Z,37.10
2019-03-16T17:22:52.927Z,38.10
2019-03-16T17:25:22.561Z,38.30
2019-03-16T17:27:54.445Z,37.60
2019-03-16T17:30:23.479Z,37.20
2019-03-16T17:32:55.443Z,37.50
2019-03-16T17:35:25.048Z,37.70
2019-03-16T17:37:54.670Z,38.10
2019-03-16T17:40:25.730Z,38.10
2019-03-16T17:42:55.314Z,38.40
2019-03-16T17:45:25.048Z,39.80
2019-03-16T17:47:54.800Z,40.10
2019-03-16T17:50:24.512Z,40.40
2019-03-16T17:52:54.166Z,40.80
2019-03-16T17:55:23.788Z,41.10
2019-03-16T17:57:53.443Z,41.00
2019-03-16T18:00:23.195Z,40.60
2019-03-16T18:02:52.890Z,40.30
2019-03-16T18:05:22.683Z,40.90
2019-03-16T18:07:52.459Z,41.60
2019-03-16T18:10:22.413Z,41.40
2019-03-16T18:12:52.028Z,41.20
2019-03-16T18:15:21.730Z,41.30
2019-03-16T18:17:51.599Z,41.60
2019-03-16T18:20:21.466Z,41.70
2019-03-16T18:22:51.108Z,42.20
2019-03-16T18:25:20.860Z,41.90
2019-03-16T18:27:50.521Z,41.90
2019-03-16T18:30:20.191Z,42.00
2019-03-16T18:32:49.955Z,42.40
2019-03-16T18:35:19.732Z,43.00
2019-03-16T18:37:49.344Z,43.40
2019-03-16T18:40:18.935Z,43.60
2019-03-16T18:42:48.568Z,43.80
2019-03-16T18:45:18.172Z,43.40
2019-03-16T18:47:47.891Z,43.20
2019-03-16T18:50:17.590Z,42.80
2019-03-16T18:52:50.583Z,43.10
2019-03-16T18:55:20.228Z,43.70
2019-03-16T18:57:50.122Z,45.10
2019-03-16T19:00:19.966Z,45.90
2019-03-16T19:02:49.644Z,46.20
2019-03-16T19:05:19.259Z,46.20
2019-03-16T19:07:48.880Z,45.80
2019-03-16T19:10:18.547Z,45.20
2019-03-16T19:12:48.261Z,45.30
2019-03-16T19:15:18.231Z,45.80
2019-03-16T19:17:58.137Z,45.90
2019-03-16T19:20:19.185Z,46.00
2019-03-16T19:22:48.833Z,46.00
2019-03-16T19:25:18.508Z,46.10
2019-03-16T19:27:48.164Z,46.30
2019-03-16T19:30:18.222Z,46.20
2019-03-16T19:32:47.928Z,45.90
2019-03-16T19:35:17.598Z,45.40
2019-03-16T19:37:47.198Z,44.80
2019-03-16T19:40:16.929Z,46.10
2019-03-16T19:42:47.290Z,46.80
2019-03-16T19:45:17.076Z,47.10
2019-03-16T19:47:47.761Z,47.40
2019-03-16T19:50:17.505Z,47.90
2019-03-16T19:52:47.124Z,47.90
2019-03-16T19:55:17.192Z,48.00
2019-03-16T19:57:49.786Z,48.10
2019-03-16T20:00:19.639Z,48.20
2019-03-16T20:02:51.360Z,48.20
2019-03-16T20:05:21.674Z,49.10
2019-03-16T20:07:51.324Z,49.40
2019-03-16T20:10:21.015Z,49.60
2019-03-16T20:12:53.244Z,49.60
2019-03-16T20:15:22.059Z,50.20
2019-03-16T20:17:51.652Z,50.00
2019-03-16T20:20:21.317Z,49.90
2019-03-16T20:22:51.363Z,50.10
2019-03-16T20:25:21.039Z,50.30
2019-03-16T20:27:50.841Z,50.30
2019-03-16T20:30:26.473Z,50.30
2019-03-16T20:33:03.082Z,50.20
2019-03-16T20:35:23.159Z,50.10
2019-03-16T20:37:52.790Z,50.20
2019-03-16T20:40:22.432Z,50.40
2019-03-16T20:42:52.064Z,50.90
2019-03-16T20:45:21.949Z,51.20
2019-03-16T20:47:51.585Z,51.40
2019-03-16T20:50:21.403Z,52.30
2019-03-16T20:52:51.271Z,51.70
2019-03-16T20:55:20.910Z,51.50
2019-03-16T20:57:50.631Z,51.20
2019-03-16T21:00:20.310Z,51.20
2019-03-16T21:02:49.911Z,51.30
2019-03-16T21:05:19.626Z,51.40
2019-03-16T21:07:49.784Z,51.50
2019-03-16T21:10:19.391Z,51.30
2019-03-16T21:12:49.546Z,51.90
2019-03-16T21:15:20.334Z,52.40
2019-03-16T21:17:50.455Z,52.50
2019-03-16T21:20:20.197Z,52.70
2019-03-16T21:22:49.799Z,52.70
2019-03-16T21:25:19.434Z,52.70
2019-03-16T21:27:49.254Z,52.90
2019-03-16T21:30:19.395Z,53.10
2019-03-16T21:32:49.501Z,53.30
2019-03-16T21:35:19.149Z,53.60
2019-03-16T21:37:48.802Z,53.50
2019-03-16T21:40:18.422Z,53.60
2019-03-16T21:42:48.129Z,53.70
2019-03-16T21:45:17.800Z,53.60
2019-03-16T21:47:59.129Z,53.40
2019-03-16T21:50:18.881Z,53.40
2019-03-16T21:52:48.580Z,53.50
2019-03-16T21:55:18.220Z,53.40
2019-03-16T21:57:47.870Z,54.00
2019-03-16T22:00:18.256Z,53.80
2019-03-16T22:02:47.912Z,54.10
2019-03-16T22:05:17.548Z,54.20
2019-03-16T22:07:48.013Z,54.20
2019-03-16T22:10:18.146Z,54.50
2019-03-16T22:12:47.773Z,54.50
2019-03-16T22:15:17.554Z,54.70
2019-03-16T22:17:47.175Z,55.20
2019-03-16T22:20:16.822Z,55.50
2019-03-16T22:22:46.483Z,55.40
2019-03-16T22:25:16.324Z,55.50
2019-03-16T22:27:46.095Z,55.60
2019-03-16T22:30:15.886Z,55.80
2019-03-16T22:32:45.558Z,55.90
2019-03-16T22:35:15.202Z,56.90
2019-03-16T22:37:44.850Z,57.20
2019-03-16T22:40:14.496Z,57.40
2019-03-16T22:42:44.111Z,57.30
2019-03-16T22:45:13.952Z,57.20
2019-03-16T22:47:43.583Z,57.40
2019-03-16T22:50:13.199Z,57.50
2019-03-16T22:52:42.875Z,57.50
2019-03-16T22:55:15.481Z,57.70
2019-03-16T22:57:43.737Z,57.90
2019-03-16T23:00:13.776Z,58.00
2019-03-16T23:02:43.395Z,58.10
2019-03-16T23:05:13.246Z,58.20
2019-03-16T23:07:42.883Z,58.50
2019-03-16T23:10:12.621Z,58.60
2019-03-16T23:12:42.250Z,58.70
2019-03-16T23:15:11.896Z,58.90
2019-03-16T23:17:41.529Z,59.30
2019-03-16T23:20:11.255Z,59.30
2019-03-16T23:22:41.275Z,59.40
2019-03-16T23:25:10.900Z,59.60
2019-03-16T23:27:40.564Z,59.80
2019-03-16T23:30:10.552Z,60.90
2019-03-16T23:32:40.249Z,60.00
2019-03-16T23:35:09.990Z,60.00
2019-03-16T23:37:39.624Z,60.30
2019-03-16T23:40:09.475Z,60.20
2019-03-16T23:42:39.428Z,60.20
2019-03-16T23:45:09.514Z,60.70
2019-03-16T23:47:39.167Z,61.30
2019-03-16T23:50:09.040Z,61.50
2019-03-16T23:52:38.689Z,61.70
2019-03-16T23:55:08.936Z,61.70
2019-03-16T23:57:38.562Z,61.20
